Página principal
METAR-TAF:

METAR-TAF

Aeroportos :

Ouagadougou, Burkina Faso

latitude: 12-21N, longitude: 001-31W, altura: 316 m

Observação actual do tempo

O boletim foi feito há 37 minutos, às 11:00 UTC
Vento 4 kt de oes-sudoeste
Temperatura 34°C
Humidade 53%
Pressão 1012 hPa
Visibilidade 10 km ou mais
sem nuvens abaixo de 1500 metros e sem cumulonimbus

METAR: DFFD 181100Z 24004KT CAVOK 34/23 Q1012 NOSIG

Hora: 11:37 (11:37 UTC)

Previsão

O boletim foi feito há 6 horas e 37 minutos, às 05:00 UTC
Previsão válida de 18 às 06 UTC a 19 às 12 UTC
Vento 8 kt de oes-sudoeste
Visibilidade 10 km ou mais
sem nuvens abaixo de 1500 metros e sem cumulonimbus
Temporariamente
de 18 às 15 UTC a 18 às 24 UTC
Visibilidade: 4000 m
Nuvens dispersasa uma altura de 2000 ft
Nuvens dispersasa uma altura de 3300 ft, Cumulonimbus.
trovoada, chuva

TAF: DFFD 180500Z 1806/1912 24008KT CAVOK TEMPO 1815/1824 4000 TSRA SCT020 SCT033CB

Observações e previsões do tempo de mais de 4000 aeroportos (mensagens METAR e TAF).

As estações disponíveis são os pontos amarelos e vermelhos sobre o mapa.

Mova o rato sobre o mapa para ver o nome da estação.

Depois clique no ponto para visualizar as observações e previsões meteorológicas.

Para alterar o mapa : clique nos botões verdes com uma cruz preta para aumentar o zoom; no botão verde com uma pitada de zoom; ou nas setas verdes para mapas adjacentes.


METAR-TAF: